sensor_id;sensor_type;location;lat;lon;timestamp;P1;durP1;ratioP1;P2;durP2;ratioP2
30072;SDS011;16897;52.422;13.678;2022-10-26T00:02:05;3.35;;;2.17;;
30072;SDS011;16897;52.422;13.678;2022-10-26T00:06:10;2.67;;;1.73;;
30072;SDS011;16897;52.422;13.678;2022-10-26T00:10:17;2.08;;;1.88;;
30072;SDS011;16897;52.422;13.678;2022-10-26T00:14:22;2.03;;;1.90;;
30072;SDS011;16897;52.422;13.678;2022-10-26T00:18:24;3.35;;;1.92;;
30072;SDS011;16897;52.422;13.678;2022-10-26T00:22:26;3.10;;;1.60;;
30072;SDS011;16897;52.422;13.678;2022-10-26T00:26:28;4.10;;;1.75;;
30072;SDS011;16897;52.422;13.678;2022-10-26T00:30:29;3.58;;;2.05;;
30072;SDS011;16897;52.422;13.678;2022-10-26T00:34:31;4.68;;;2.00;;
30072;SDS011;16897;52.422;13.678;2022-10-26T00:38:33;2.40;;;2.08;;
30072;SDS011;16897;52.422;13.678;2022-10-26T00:42:34;4.25;;;2.03;;
30072;SDS011;16897;52.422;13.678;2022-10-26T00:46:36;2.30;;;1.75;;
30072;SDS011;16897;52.422;13.678;2022-10-26T00:50:40;3.65;;;1.92;;
30072;SDS011;16897;52.422;13.678;2022-10-26T00:54:44;2.08;;;1.88;;
30072;SDS011;16897;52.422;13.678;2022-10-26T00:58:46;3.97;;;1.92;;
30072;SDS011;16897;52.422;13.678;2022-10-26T01:02:48;2.47;;;2.08;;
30072;SDS011;16897;52.422;13.678;2022-10-26T01:06:52;2.03;;;1.88;;
30072;SDS011;16897;52.422;13.678;2022-10-26T01:10:58;2.15;;;2.05;;
30072;SDS011;16897;52.422;13.678;2022-10-26T01:15:01;2.42;;;2.17;;
30072;SDS011;16897;52.422;13.678;2022-10-26T01:23:34;2.05;;;1.95;;
30072;SDS011;16897;52.422;13.678;2022-10-26T01:37:06;2.08;;;1.80;;
30072;SDS011;16897;52.422;13.678;2022-10-26T01:45:32;2.88;;;2.25;;
30072;SDS011;16897;52.422;13.678;2022-10-26T01:49:38;3.78;;;1.85;;
30072;SDS011;16897;52.422;13.678;2022-10-26T01:53:47;2.78;;;2.28;;
30072;SDS011;16897;52.422;13.678;2022-10-26T01:57:49;3.53;;;2.30;;
30072;SDS011;16897;52.422;13.678;2022-10-26T02:07:16;1.80;;;1.70;;
30072;SDS011;16897;52.422;13.678;2022-10-26T02:11:39;2.72;;;1.75;;
30072;SDS011;16897;52.422;13.678;2022-10-26T02:20:04;3.42;;;2.35;;
30072;SDS011;16897;52.422;13.678;2022-10-26T02:24:11;2.60;;;1.98;;
30072;SDS011;16897;52.422;13.678;2022-10-26T02:28:17;2.15;;;1.85;;
30072;SDS011;16897;52.422;13.678;2022-10-26T02:32:24;3.17;;;2.05;;
30072;SDS011;16897;52.422;13.678;2022-10-26T02:36:31;1.95;;;1.85;;
30072;SDS011;16897;52.422;13.678;2022-10-26T02:40:36;4.10;;;2.05;;
30072;SDS011;16897;52.422;13.678;2022-10-26T02:44:56;2.30;;;2.10;;
30072;SDS011;16897;52.422;13.678;2022-10-26T02:49:05;3.47;;;1.77;;
30072;SDS011;16897;52.422;13.678;2022-10-26T02:53:17;1.85;;;1.60;;
30072;SDS011;16897;52.422;13.678;2022-10-26T03:01:39;2.17;;;1.98;;
30072;SDS011;16897;52.422;13.678;2022-10-26T03:05:42;4.47;;;2.40;;
30072;SDS011;16897;52.422;13.678;2022-10-26T03:09:44;2.05;;;1.92;;
30072;SDS011;16897;52.422;13.678;2022-10-26T03:13:46;2.53;;;2.33;;
30072;SDS011;16897;52.422;13.678;2022-10-26T03:17:47;4.78;;;3.03;;
30072;SDS011;16897;52.422;13.678;2022-10-26T03:21:49;2.28;;;2.00;;
30072;SDS011;16897;52.422;13.678;2022-10-26T03:25:55;2.10;;;1.90;;
30072;SDS011;16897;52.422;13.678;2022-10-26T03:29:57;1.75;;;1.60;;
30072;SDS011;16897;52.422;13.678;2022-10-26T03:33:59;2.20;;;2.00;;
30072;SDS011;16897;52.422;13.678;2022-10-26T03:38:01;2.22;;;2.03;;
30072;SDS011;16897;52.422;13.678;2022-10-26T03:42:03;2.90;;;2.13;;
30072;SDS011;16897;52.422;13.678;2022-10-26T03:46:05;2.95;;;1.90;;
30072;SDS011;16897;52.422;13.678;2022-10-26T03:50:07;2.17;;;1.98;;
30072;SDS011;16897;52.422;13.678;2022-10-26T03:54:09;2.33;;;2.13;;
30072;SDS011;16897;52.422;13.678;2022-10-26T03:58:11;2.20;;;2.00;;
30072;SDS011;16897;52.422;13.678;2022-10-26T04:02:13;4.15;;;2.15;;
30072;SDS011;16897;52.422;13.678;2022-10-26T04:06:14;2.05;;;1.75;;
30072;SDS011;16897;52.422;13.678;2022-10-26T04:10:16;4.03;;;2.10;;
30072;SDS011;16897;52.422;13.678;2022-10-26T04:14:17;8.10;;;2.17;;
30072;SDS011;16897;52.422;13.678;2022-10-26T04:18:19;2.35;;;2.15;;
30072;SDS011;16897;52.422;13.678;2022-10-26T04:22:21;2.55;;;1.95;;
30072;SDS011;16897;52.422;13.678;2022-10-26T04:26:23;3.45;;;1.92;;
30072;SDS011;16897;52.422;13.678;2022-10-26T04:30:28;4.95;;;1.90;;
30072;SDS011;16897;52.422;13.678;2022-10-26T04:34:30;5.75;;;1.98;;
30072;SDS011;16897;52.422;13.678;2022-10-26T04:38:32;1.92;;;1.83;;
30072;SDS011;16897;52.422;13.678;2022-10-26T04:42:40;1.98;;;1.52;;
30072;SDS011;16897;52.422;13.678;2022-10-26T04:46:43;2.17;;;1.92;;
30072;SDS011;16897;52.422;13.678;2022-10-26T04:50:44;2.40;;;2.20;;
30072;SDS011;16897;52.422;13.678;2022-10-26T04:54:47;3.65;;;1.90;;
30072;SDS011;16897;52.422;13.678;2022-10-26T04:58:49;3.22;;;1.85;;
30072;SDS011;16897;52.422;13.678;2022-10-26T05:03:03;2.70;;;1.60;;
30072;SDS011;16897;52.422;13.678;2022-10-26T05:07:07;2.38;;;1.80;;
30072;SDS011;16897;52.422;13.678;2022-10-26T05:11:09;1.75;;;1.65;;
30072;SDS011;16897;52.422;13.678;2022-10-26T05:15:11;2.50;;;2.30;;
30072;SDS011;16897;52.422;13.678;2022-10-26T05:19:14;1.77;;;1.67;;
30072;SDS011;16897;52.422;13.678;2022-10-26T05:23:16;1.98;;;1.88;;
30072;SDS011;16897;52.422;13.678;2022-10-26T05:27:18;3.08;;;2.00;;
30072;SDS011;16897;52.422;13.678;2022-10-26T05:31:20;2.33;;;2.13;;
30072;SDS011;16897;52.422;13.678;2022-10-26T05:35:22;1.90;;;1.67;;
30072;SDS011;16897;52.422;13.678;2022-10-26T05:39:24;1.85;;;1.73;;
30072;SDS011;16897;52.422;13.678;2022-10-26T05:43:26;2.15;;;1.67;;
30072;SDS011;16897;52.422;13.678;2022-10-26T05:47:27;1.85;;;1.70;;
30072;SDS011;16897;52.422;13.678;2022-10-26T05:51:31;2.22;;;1.80;;
30072;SDS011;16897;52.422;13.678;2022-10-26T05:55:34;2.85;;;2.22;;
30072;SDS011;16897;52.422;13.678;2022-10-26T05:59:36;2.10;;;1.90;;
30072;SDS011;16897;52.422;13.678;2022-10-26T06:08:15;1.95;;;1.55;;
30072;SDS011;16897;52.422;13.678;2022-10-26T06:12:17;1.88;;;1.77;;
30072;SDS011;16897;52.422;13.678;2022-10-26T06:16:45;1.70;;;1.60;;
30072;SDS011;16897;52.422;13.678;2022-10-26T06:21:09;2.90;;;1.40;;
30072;SDS011;16897;52.422;13.678;2022-10-26T06:30:12;1.77;;;1.67;;
30072;SDS011;16897;52.422;13.678;2022-10-26T06:34:16;4.05;;;1.48;;
30072;SDS011;16897;52.422;13.678;2022-10-26T06:38:37;1.70;;;1.60;;
30072;SDS011;16897;52.422;13.678;2022-10-26T06:42:41;2.25;;;1.40;;
30072;SDS011;16897;52.422;13.678;2022-10-26T06:46:47;1.35;;;1.25;;
30072;SDS011;16897;52.422;13.678;2022-10-26T06:51:07;3.53;;;1.42;;
30072;SDS011;16897;52.422;13.678;2022-10-26T06:55:15;1.60;;;1.50;;
30072;SDS011;16897;52.422;13.678;2022-10-26T07:03:53;1.50;;;1.40;;
30072;SDS011;16897;52.422;13.678;2022-10-26T07:07:55;2.17;;;1.20;;
30072;SDS011;16897;52.422;13.678;2022-10-26T07:11:57;1.60;;;1.50;;
30072;SDS011;16897;52.422;13.678;2022-10-26T07:15:59;2.47;;;1.60;;
30072;SDS011;16897;52.422;13.678;2022-10-26T07:20:01;2.67;;;1.60;;
30072;SDS011;16897;52.422;13.678;2022-10-26T07:24:02;2.78;;;1.70;;
30072;SDS011;16897;52.422;13.678;2022-10-26T07:28:05;1.33;;;1.23;;
30072;SDS011;16897;52.422;13.678;2022-10-26T07:32:10;1.23;;;1.15;;
30072;SDS011;16897;52.422;13.678;2022-10-26T07:36:12;2.67;;;1.65;;
30072;SDS011;16897;52.422;13.678;2022-10-26T07:40:13;2.22;;;2.03;;
30072;SDS011;16897;52.422;13.678;2022-10-26T07:44:15;7.22;;;2.03;;
30072;SDS011;16897;52.422;13.678;2022-10-26T07:48:16;3.17;;;1.48;;
30072;SDS011;16897;52.422;13.678;2022-10-26T07:52:18;2.20;;;2.00;;
30072;SDS011;16897;52.422;13.678;2022-10-26T07:56:20;1.75;;;1.65;;
30072;SDS011;16897;52.422;13.678;2022-10-26T08:00:22;1.90;;;1.80;;
30072;SDS011;16897;52.422;13.678;2022-10-26T08:04:25;2.10;;;1.92;;
30072;SDS011;16897;52.422;13.678;2022-10-26T08:08:27;1.98;;;1.88;;
30072;SDS011;16897;52.422;13.678;2022-10-26T08:12:28;2.00;;;1.90;;
30072;SDS011;16897;52.422;13.678;2022-10-26T08:16:29;2.10;;;2.00;;
30072;SDS011;16897;52.422;13.678;2022-10-26T08:20:31;2.80;;;2.58;;
30072;SDS011;16897;52.422;13.678;2022-10-26T08:24:33;2.00;;;1.90;;
30072;SDS011;16897;52.422;13.678;2022-10-26T08:28:36;2.42;;;2.20;;
30072;SDS011;16897;52.422;13.678;2022-10-26T08:32:38;2.15;;;2.05;;
30072;SDS011;16897;52.422;13.678;2022-10-26T08:36:42;2.10;;;2.00;;
30072;SDS011;16897;52.422;13.678;2022-10-26T08:40:43;2.20;;;1.85;;
30072;SDS011;16897;52.422;13.678;2022-10-26T08:44:46;2.50;;;2.10;;
30072;SDS011;16897;52.422;13.678;2022-10-26T08:48:51;2.35;;;2.15;;
30072;SDS011;16897;52.422;13.678;2022-10-26T08:57:21;3.58;;;2.15;;
30072;SDS011;16897;52.422;13.678;2022-10-26T09:01:35;2.13;;;1.92;;
30072;SDS011;16897;52.422;13.678;2022-10-26T09:05:38;1.95;;;1.85;;
30072;SDS011;16897;52.422;13.678;2022-10-26T09:10:19;2.08;;;1.88;;
30072;SDS011;16897;52.422;13.678;2022-10-26T09:28:10;1.75;;;1.65;;
30072;SDS011;16897;52.422;13.678;2022-10-26T09:32:23;2.03;;;1.80;;
30072;SDS011;16897;52.422;13.678;2022-10-26T09:36:38;1.80;;;1.70;;
30072;SDS011;16897;52.422;13.678;2022-10-26T09:40:47;2.15;;;1.95;;
30072;SDS011;16897;52.422;13.678;2022-10-26T09:44:57;2.22;;;2.03;;
30072;SDS011;16897;52.422;13.678;2022-10-26T09:49:05;1.88;;;1.77;;
30072;SDS011;16897;52.422;13.678;2022-10-26T09:53:11;3.13;;;1.80;;
30072;SDS011;16897;52.422;13.678;2022-10-26T09:57:13;2.38;;;1.75;;
30072;SDS011;16897;52.422;13.678;2022-10-26T10:05:34;1.85;;;1.75;;
30072;SDS011;16897;52.422;13.678;2022-10-26T10:09:36;2.78;;;2.13;;
30072;SDS011;16897;52.422;13.678;2022-10-26T10:13:39;3.78;;;2.30;;
30072;SDS011;16897;52.422;13.678;2022-10-26T10:17:47;3.83;;;2.47;;
30072;SDS011;16897;52.422;13.678;2022-10-26T10:21:54;4.93;;;3.08;;
30072;SDS011;16897;52.422;13.678;2022-10-26T10:26:03;6.70;;;2.80;;
30072;SDS011;16897;52.422;13.678;2022-10-26T10:30:21;5.28;;;3.35;;
30072;SDS011;16897;52.422;13.678;2022-10-26T10:34:30;3.33;;;2.45;;
30072;SDS011;16897;52.422;13.678;2022-10-26T10:38:37;4.03;;;2.17;;
30072;SDS011;16897;52.422;13.678;2022-10-26T10:42:43;3.55;;;2.20;;
30072;SDS011;16897;52.422;13.678;2022-10-26T10:46:47;2.42;;;2.13;;
30072;SDS011;16897;52.422;13.678;2022-10-26T10:50:53;3.03;;;2.65;;
30072;SDS011;16897;52.422;13.678;2022-10-26T10:55:00;3.47;;;2.25;;
30072;SDS011;16897;52.422;13.678;2022-10-26T11:04:20;1.30;;;1.27;;
30072;SDS011;16897;52.422;13.678;2022-10-26T11:09:06;1.70;;;1.52;;
30072;SDS011;16897;52.422;13.678;2022-10-26T11:13:15;1.40;;;1.23;;
30072;SDS011;16897;52.422;13.678;2022-10-26T11:17:32;3.00;;;1.40;;
30072;SDS011;16897;52.422;13.678;2022-10-26T11:21:52;1.50;;;1.40;;
30072;SDS011;16897;52.422;13.678;2022-10-26T11:25:56;1.55;;;1.35;;
30072;SDS011;16897;52.422;13.678;2022-10-26T11:30:24;1.40;;;1.30;;
30072;SDS011;16897;52.422;13.678;2022-10-26T11:34:30;1.55;;;1.25;;
30072;SDS011;16897;52.422;13.678;2022-10-26T11:39:04;1.30;;;1.20;;
30072;SDS011;16897;52.422;13.678;2022-10-26T11:43:40;1.45;;;1.20;;
30072;SDS011;16897;52.422;13.678;2022-10-26T11:47:50;2.38;;;1.15;;
30072;SDS011;16897;52.422;13.678;2022-10-26T11:56:22;0.90;;;0.90;;
30072;SDS011;16897;52.422;13.678;2022-10-26T12:00:40;2.58;;;1.55;;
30072;SDS011;16897;52.422;13.678;2022-10-26T12:04:53;1.38;;;1.02;;
30072;SDS011;16897;52.422;13.678;2022-10-26T12:09:05;1.40;;;1.10;;
30072;SDS011;16897;52.422;13.678;2022-10-26T12:13:14;1.30;;;1.20;;
30072;SDS011;16897;52.422;13.678;2022-10-26T12:17:25;1.90;;;1.00;;
30072;SDS011;16897;52.422;13.678;2022-10-26T12:21:48;1.27;;;1.10;;
30072;SDS011;16897;52.422;13.678;2022-10-26T12:25:51;1.95;;;1.10;;
30072;SDS011;16897;52.422;13.678;2022-10-26T12:30:33;2.58;;;0.88;;
30072;SDS011;16897;52.422;13.678;2022-10-26T12:38:57;5.43;;;3.67;;
30072;SDS011;16897;52.422;13.678;2022-10-26T12:43:31;2.83;;;2.08;;
30072;SDS011;16897;52.422;13.678;2022-10-26T13:00:05;1.17;;;1.08;;
30072;SDS011;16897;52.422;13.678;2022-10-26T13:08:44;1.30;;;0.90;;
30072;SDS011;16897;52.422;13.678;2022-10-26T13:12:52;1.48;;;1.38;;
30072;SDS011;16897;52.422;13.678;2022-10-26T13:16:56;1.00;;;0.90;;
30072;SDS011;16897;52.422;13.678;2022-10-26T13:21:17;1.00;;;1.00;;
30072;SDS011;16897;52.422;13.678;2022-10-26T13:25:23;0.90;;;0.90;;
30072;SDS011;16897;52.422;13.678;2022-10-26T13:29:30;1.73;;;1.20;;
30072;SDS011;16897;52.422;13.678;2022-10-26T13:33:35;2.20;;;1.45;;
30072;SDS011;16897;52.422;13.678;2022-10-26T13:37:42;1.65;;;1.13;;
30072;SDS011;16897;52.422;13.678;2022-10-26T13:41:48;1.25;;;0.98;;
30072;SDS011;16897;52.422;13.678;2022-10-26T13:45:54;4.00;;;1.08;;
30072;SDS011;16897;52.422;13.678;2022-10-26T13:50:04;0.88;;;0.70;;
30072;SDS011;16897;52.422;13.678;2022-10-26T13:54:16;0.95;;;0.90;;
30072;SDS011;16897;52.422;13.678;2022-10-26T14:02:42;3.08;;;2.20;;
30072;SDS011;16897;52.422;13.678;2022-10-26T14:06:46;3.13;;;1.38;;
30072;SDS011;16897;52.422;13.678;2022-10-26T14:10:52;3.03;;;1.20;;
30072;SDS011;16897;52.422;13.678;2022-10-26T14:15:00;1.77;;;1.00;;
30072;SDS011;16897;52.422;13.678;2022-10-26T14:19:12;2.67;;;1.10;;
30072;SDS011;16897;52.422;13.678;2022-10-26T14:23:36;2.20;;;1.00;;
30072;SDS011;16897;52.422;13.678;2022-10-26T14:27:55;3.25;;;0.88;;
30072;SDS011;16897;52.422;13.678;2022-10-26T14:31:57;1.17;;;1.00;;
30072;SDS011;16897;52.422;13.678;2022-10-26T14:35:59;1.00;;;0.90;;
30072;SDS011;16897;52.422;13.678;2022-10-26T14:40:01;3.85;;;0.90;;
30072;SDS011;16897;52.422;13.678;2022-10-26T14:44:04;1.25;;;0.82;;
30072;SDS011;16897;52.422;13.678;2022-10-26T14:52:28;1.38;;;0.90;;
30072;SDS011;16897;52.422;13.678;2022-10-26T15:00:36;0.98;;;0.85;;
30072;SDS011;16897;52.422;13.678;2022-10-26T15:04:38;0.70;;;0.70;;
30072;SDS011;16897;52.422;13.678;2022-10-26T15:08:43;1.83;;;1.00;;
30072;SDS011;16897;52.422;13.678;2022-10-26T15:12:46;4.50;;;1.00;;
30072;SDS011;16897;52.422;13.678;2022-10-26T15:16:49;0.80;;;0.80;;
30072;SDS011;16897;52.422;13.678;2022-10-26T15:20:55;3.70;;;0.90;;
30072;SDS011;16897;52.422;13.678;2022-10-26T15:24:58;0.77;;;0.77;;
30072;SDS011;16897;52.422;13.678;2022-10-26T15:29:04;1.55;;;0.90;;
30072;SDS011;16897;52.422;13.678;2022-10-26T15:33:25;1.02;;;0.80;;
30072;SDS011;16897;52.422;13.678;2022-10-26T15:37:27;0.90;;;0.70;;
30072;SDS011;16897;52.422;13.678;2022-10-26T15:45:35;2.47;;;1.00;;
30072;SDS011;16897;52.422;13.678;2022-10-26T15:49:47;2.33;;;0.70;;
30072;SDS011;16897;52.422;13.678;2022-10-26T15:53:50;1.42;;;0.77;;
30072;SDS011;16897;52.422;13.678;2022-10-26T15:57:52;0.98;;;0.73;;
30072;SDS011;16897;52.422;13.678;2022-10-26T16:01:53;1.15;;;0.90;;
30072;SDS011;16897;52.422;13.678;2022-10-26T16:05:56;9.07;;;2.78;;
30072;SDS011;16897;52.422;13.678;2022-10-26T16:10:00;11.27;;;4.22;;
30072;SDS011;16897;52.422;13.678;2022-10-26T16:14:02;12.15;;;4.10;;
30072;SDS011;16897;52.422;13.678;2022-10-26T16:18:03;9.00;;;4.00;;
30072;SDS011;16897;52.422;13.678;2022-10-26T16:22:05;14.18;;;4.00;;
30072;SDS011;16897;52.422;13.678;2022-10-26T16:26:07;4.90;;;2.42;;
30072;SDS011;16897;52.422;13.678;2022-10-26T16:30:09;2.70;;;1.77;;
30072;SDS011;16897;52.422;13.678;2022-10-26T16:34:12;6.65;;;4.65;;
30072;SDS011;16897;52.422;13.678;2022-10-26T16:38:14;9.80;;;5.18;;
30072;SDS011;16897;52.422;13.678;2022-10-26T16:42:16;7.22;;;4.68;;
30072;SDS011;16897;52.422;13.678;2022-10-26T16:46:18;7.10;;;5.05;;
30072;SDS011;16897;52.422;13.678;2022-10-26T16:50:21;5.05;;;3.63;;
30072;SDS011;16897;52.422;13.678;2022-10-26T16:54:23;3.53;;;2.70;;
30072;SDS011;16897;52.422;13.678;2022-10-26T16:58:25;2.25;;;2.05;;
30072;SDS011;16897;52.422;13.678;2022-10-26T17:02:27;2.22;;;2.00;;
30072;SDS011;16897;52.422;13.678;2022-10-26T17:06:28;2.95;;;1.30;;
30072;SDS011;16897;52.422;13.678;2022-10-26T17:10:30;2.92;;;1.40;;
30072;SDS011;16897;52.422;13.678;2022-10-26T17:14:32;0.88;;;0.88;;
30072;SDS011;16897;52.422;13.678;2022-10-26T17:18:34;1.05;;;0.95;;
30072;SDS011;16897;52.422;13.678;2022-10-26T17:22:35;2.53;;;1.00;;
30072;SDS011;16897;52.422;13.678;2022-10-26T17:26:37;1.30;;;0.98;;
30072;SDS011;16897;52.422;13.678;2022-10-26T17:30:39;0.90;;;0.90;;
30072;SDS011;16897;52.422;13.678;2022-10-26T17:34:41;1.35;;;0.93;;
30072;SDS011;16897;52.422;13.678;2022-10-26T17:38:42;1.98;;;1.00;;
30072;SDS011;16897;52.422;13.678;2022-10-26T17:42:44;0.80;;;0.80;;
30072;SDS011;16897;52.422;13.678;2022-10-26T17:46:46;1.15;;;1.08;;
30072;SDS011;16897;52.422;13.678;2022-10-26T17:50:47;2.60;;;1.50;;
30072;SDS011;16897;52.422;13.678;2022-10-26T17:54:49;2.10;;;1.10;;
30072;SDS011;16897;52.422;13.678;2022-10-26T17:58:52;1.27;;;0.90;;
30072;SDS011;16897;52.422;13.678;2022-10-26T18:02:59;2.50;;;0.90;;
30072;SDS011;16897;52.422;13.678;2022-10-26T18:07:00;2.95;;;0.88;;
30072;SDS011;16897;52.422;13.678;2022-10-26T18:11:02;0.88;;;0.85;;
30072;SDS011;16897;52.422;13.678;2022-10-26T18:15:06;1.00;;;0.80;;
30072;SDS011;16897;52.422;13.678;2022-10-26T18:19:08;1.25;;;0.90;;
30072;SDS011;16897;52.422;13.678;2022-10-26T18:23:10;2.85;;;0.88;;
30072;SDS011;16897;52.422;13.678;2022-10-26T18:27:11;0.98;;;0.85;;
30072;SDS011;16897;52.422;13.678;2022-10-26T18:31:14;0.85;;;0.85;;
30072;SDS011;16897;52.422;13.678;2022-10-26T18:35:19;2.25;;;1.25;;
30072;SDS011;16897;52.422;13.678;2022-10-26T18:39:20;1.33;;;1.23;;
30072;SDS011;16897;52.422;13.678;2022-10-26T18:43:22;1.45;;;1.10;;
30072;SDS011;16897;52.422;13.678;2022-10-26T18:47:23;1.65;;;1.15;;
30072;SDS011;16897;52.422;13.678;2022-10-26T18:51:28;2.65;;;1.42;;
30072;SDS011;16897;52.422;13.678;2022-10-26T18:55:34;6.70;;;2.35;;
30072;SDS011;16897;52.422;13.678;2022-10-26T18:59:35;4.85;;;2.40;;
30072;SDS011;16897;52.422;13.678;2022-10-26T19:03:37;3.08;;;1.88;;
30072;SDS011;16897;52.422;13.678;2022-10-26T19:07:43;3.80;;;1.98;;
30072;SDS011;16897;52.422;13.678;2022-10-26T19:11:44;6.43;;;1.55;;
30072;SDS011;16897;52.422;13.678;2022-10-26T19:15:46;2.33;;;1.38;;
30072;SDS011;16897;52.422;13.678;2022-10-26T19:19:48;8.10;;;3.60;;
30072;SDS011;16897;52.422;13.678;2022-10-26T19:23:50;12.00;;;6.07;;
30072;SDS011;16897;52.422;13.678;2022-10-26T19:27:54;16.83;;;9.03;;
30072;SDS011;16897;52.422;13.678;2022-10-26T19:31:56;14.75;;;6.68;;
30072;SDS011;16897;52.422;13.678;2022-10-26T19:36:01;11.65;;;3.60;;
30072;SDS011;16897;52.422;13.678;2022-10-26T19:40:08;5.03;;;2.45;;
30072;SDS011;16897;52.422;13.678;2022-10-26T19:44:11;3.58;;;1.80;;
30072;SDS011;16897;52.422;13.678;2022-10-26T19:48:14;3.40;;;1.70;;
30072;SDS011;16897;52.422;13.678;2022-10-26T19:52:16;2.97;;;1.73;;
30072;SDS011;16897;52.422;13.678;2022-10-26T19:56:18;1.80;;;1.38;;
30072;SDS011;16897;52.422;13.678;2022-10-26T20:00:21;2.83;;;1.45;;
30072;SDS011;16897;52.422;13.678;2022-10-26T20:04:24;3.15;;;1.58;;
30072;SDS011;16897;52.422;13.678;2022-10-26T20:08:26;1.35;;;1.25;;
30072;SDS011;16897;52.422;13.678;2022-10-26T20:12:29;1.42;;;1.33;;
30072;SDS011;16897;52.422;13.678;2022-10-26T20:16:33;2.57;;;1.37;;
30072;SDS011;16897;52.422;13.678;2022-10-26T20:20:36;3.17;;;1.40;;
30072;SDS011;16897;52.422;13.678;2022-10-26T20:24:37;2.42;;;1.55;;
30072;SDS011;16897;52.422;13.678;2022-10-26T20:28:43;1.35;;;1.20;;
30072;SDS011;16897;52.422;13.678;2022-10-26T20:32:46;1.40;;;1.27;;
30072;SDS011;16897;52.422;13.678;2022-10-26T20:36:48;1.20;;;1.10;;
30072;SDS011;16897;52.422;13.678;2022-10-26T20:40:52;1.45;;;1.33;;
30072;SDS011;16897;52.422;13.678;2022-10-26T20:49:09;3.60;;;1.30;;
30072;SDS011;16897;52.422;13.678;2022-10-26T21:01:40;2.05;;;1.20;;
30072;SDS011;16897;52.422;13.678;2022-10-26T21:05:43;1.75;;;1.63;;
30072;SDS011;16897;52.422;13.678;2022-10-26T21:09:47;3.60;;;1.73;;
30072;SDS011;16897;52.422;13.678;2022-10-26T21:13:50;2.38;;;1.50;;
30072;SDS011;16897;52.422;13.678;2022-10-26T21:17:53;2.42;;;1.58;;
30072;SDS011;16897;52.422;13.678;2022-10-26T21:21:55;2.33;;;1.95;;
30072;SDS011;16897;52.422;13.678;2022-10-26T21:25:57;1.63;;;1.52;;
30072;SDS011;16897;52.422;13.678;2022-10-26T21:29:58;1.98;;;1.23;;
30072;SDS011;16897;52.422;13.678;2022-10-26T21:34:00;3.80;;;2.50;;
30072;SDS011;16897;52.422;13.678;2022-10-26T21:38:02;2.53;;;2.05;;
30072;SDS011;16897;52.422;13.678;2022-10-26T21:42:03;3.00;;;1.92;;
30072;SDS011;16897;52.422;13.678;2022-10-26T21:46:05;2.15;;;1.95;;
30072;SDS011;16897;52.422;13.678;2022-10-26T21:50:08;2.72;;;1.77;;
30072;SDS011;16897;52.422;13.678;2022-10-26T21:54:09;2.30;;;1.80;;
30072;SDS011;16897;52.422;13.678;2022-10-26T21:58:11;1.95;;;1.85;;
30072;SDS011;16897;52.422;13.678;2022-10-26T22:02:13;1.63;;;1.52;;
30072;SDS011;16897;52.422;13.678;2022-10-26T22:06:17;2.40;;;2.20;;
30072;SDS011;16897;52.422;13.678;2022-10-26T22:10:20;4.43;;;1.35;;
30072;SDS011;16897;52.422;13.678;2022-10-26T22:14:22;1.92;;;1.73;;
30072;SDS011;16897;52.422;13.678;2022-10-26T22:18:24;2.65;;;2.20;;
30072;SDS011;16897;52.422;13.678;2022-10-26T22:22:25;3.78;;;2.15;;
30072;SDS011;16897;52.422;13.678;2022-10-26T22:26:27;2.13;;;1.92;;
30072;SDS011;16897;52.422;13.678;2022-10-26T22:30:29;2.00;;;1.80;;
30072;SDS011;16897;52.422;13.678;2022-10-26T22:34:30;2.00;;;1.90;;
30072;SDS011;16897;52.422;13.678;2022-10-26T22:38:32;2.53;;;1.75;;
30072;SDS011;16897;52.422;13.678;2022-10-26T22:42:34;4.43;;;2.88;;
30072;SDS011;16897;52.422;13.678;2022-10-26T22:46:35;4.95;;;4.05;;
30072;SDS011;16897;52.422;13.678;2022-10-26T22:50:37;5.55;;;3.97;;
30072;SDS011;16897;52.422;13.678;2022-10-26T22:54:39;4.63;;;3.20;;
30072;SDS011;16897;52.422;13.678;2022-10-26T22:58:40;4.03;;;3.63;;
30072;SDS011;16897;52.422;13.678;2022-10-26T23:02:42;5.53;;;2.97;;
30072;SDS011;16897;52.422;13.678;2022-10-26T23:06:43;3.15;;;2.13;;
30072;SDS011;16897;52.422;13.678;2022-10-26T23:10:45;5.72;;;2.40;;
30072;SDS011;16897;52.422;13.678;2022-10-26T23:14:47;2.33;;;1.88;;
30072;SDS011;16897;52.422;13.678;2022-10-26T23:18:48;1.73;;;1.60;;
30072;SDS011;16897;52.422;13.678;2022-10-26T23:22:50;3.58;;;1.88;;
30072;SDS011;16897;52.422;13.678;2022-10-26T23:26:52;2.00;;;1.80;;
30072;SDS011;16897;52.422;13.678;2022-10-26T23:30:54;2.50;;;1.65;;
30072;SDS011;16897;52.422;13.678;2022-10-26T23:34:55;1.38;;;1.27;;
30072;SDS011;16897;52.422;13.678;2022-10-26T23:38:57;2.03;;;1.70;;
30072;SDS011;16897;52.422;13.678;2022-10-26T23:42:58;4.45;;;1.73;;
30072;SDS011;16897;52.422;13.678;2022-10-26T23:47:00;2.00;;;1.90;;
30072;SDS011;16897;52.422;13.678;2022-10-26T23:51:02;3.22;;;1.63;;
30072;SDS011;16897;52.422;13.678;2022-10-26T23:55:04;3.78;;;2.00;;
30072;SDS011;16897;52.422;13.678;2022-10-26T23:59:06;2.33;;;1.42;;
